Time;durP1;ratioP1;P1;durP2;ratioP2;P2;SDS_P1;SDS_P2;PMS_P1;PMS_P2;Temp;Humidity;BMP_temperature;BMP_pressure;BME280_temperature;BME280_humidity;BME280_pressure;Samples;Min_cycle;Max_cycle;Signal;HPM_P1;HPM_P2
2021/12/10 00:01:21;;;;;;;41.40;20.60;;;;;;;-1.68;84.91;99167.01;103115;1317;138055;-69
2021/12/10 00:03:57;;;;;;;42.10;19.80;;;;;;;-1.71;85.14;99164.97;103239;1317;108995;-68
2021/12/10 00:06:33;;;;;;;38.60;19.90;;;;;;;-1.71;85.00;99151.67;103887;1320;96143;-69
2021/12/10 00:09:11;;;;;;;38.00;18.70;;;;;;;-1.66;84.87;99149.61;103884;1316;138752;-70
2021/12/10 00:11:47;;;;;;;35.20;19.20;;;;;;;-1.66;85.03;99148.77;103656;1320;112374;-70
2021/12/10 00:14:24;;;;;;;40.40;19.50;;;;;;;-1.66;85.10;99142.46;103908;1315;140649;-69
2021/12/10 00:16:54;;;;;;;;;;;;;;;-1.67;85.02;99141.44;103305;1315;108874;-69
2021/12/10 00:19:32;;;;;;;40.90;20.10;;;;;;;-1.62;85.14;99142.63;103125;1317;125888;-69
2021/12/10 00:22:10;;;;;;;38.10;19.40;;;;;;;-1.61;85.28;99135.83;103319;1314;97880;-69
2021/12/10 00:24:43;;;;;;;43.60;21.20;;;;;;;-1.60;84.91;99123.38;104613;1316;112558;-70
2021/12/10 00:27:16;;;;;;;43.40;20.30;;;;;;;-1.62;85.08;99123.37;103758;1319;137952;-70
2021/12/10 00:29:50;;;;;;;38.10;19.40;;;;;;;-1.63;85.30;99121.99;103245;1315;108335;-69
2021/12/10 00:32:31;;;;;;;43.10;19.70;;;;;;;-1.64;85.10;99117.40;103066;1316;139208;-69
2021/12/10 00:35:06;;;;;;;41.40;20.20;;;;;;;-1.63;85.17;99106.83;103396;1315;97871;-69
2021/12/10 00:37:39;;;;;;;39.80;20.20;;;;;;;-1.62;85.78;99093.19;103152;1317;139062;-69
2021/12/10 00:40:14;;;;;;;43.00;20.90;;;;;;;-1.63;85.75;99080.92;103252;1319;108853;-70
2021/12/10 00:42:47;;;;;;;40.20;18.70;;;;;;;-1.64;85.65;99068.65;103895;1316;107748;-70
2021/12/10 00:45:21;;;;;;;42.40;20.40;;;;;;;-1.63;85.86;99078.70;103658;1319;138891;-69
2021/12/10 00:47:53;;;;;;;42.80;20.20;;;;;;;-1.63;86.11;99090.80;103301;1315;97932;-69
2021/12/10 00:50:30;;;;;;;41.00;19.80;;;;;;;-1.66;86.13;99082.30;103124;1315;138527;-71
2021/12/10 00:53:03;;;;;;;42.80;20.30;;;;;;;-1.67;86.06;99088.27;103263;1319;109586;-69
2021/12/10 00:55:36;;;;;;;41.40;20.20;;;;;;;-1.66;86.14;99079.73;103111;1319;138827;-70
2021/12/10 00:58:09;;;;;;;40.50;18.80;;;;;;;-1.65;86.26;99078.38;103254;1319;97882;-69
2021/12/10 01:00:44;;;;;;;45.70;20.00;;;;;;;-1.63;86.64;99067.98;103231;1318;97859;-70
2021/12/10 01:03:21;;;;;;;42.60;19.60;;;;;;;-1.60;86.32;99067.48;103148;1315;138747;-70
2021/12/10 01:06:00;;;;;;;40.10;18.00;;;;;;;-1.56;86.29;99069.52;103279;1316;108918;-70
2021/12/10 01:08:35;;;;;;;45.20;19.70;;;;;;;-1.55;86.50;99062.51;103124;1316;139021;-70
2021/12/10 01:11:12;;;;;;;39.00;19.90;;;;;;;-1.52;86.18;99060.63;103247;1315;97821;-70
2021/12/10 01:13:48;;;;;;;44.40;21.30;;;;;;;-1.49;86.41;99061.64;104329;1316;139332;-69
2021/12/10 01:25:12;;;;;;;41.70;19.60;;;;;;;-1.56;86.78;99054.34;103226;1315;97964;-70
2021/12/10 01:27:45;;;;;;;43.40;20.10;;;;;;;-1.55;86.78;99043.25;103943;1316;139710;-71
2021/12/10 01:30:21;;;;;;;41.20;19.50;;;;;;;-1.50;86.88;99041.35;104510;1316;112456;-68
2021/12/10 01:32:57;;;;;;;37.80;18.80;;;;;;;-1.45;86.75;99041.34;104476;1319;139048;-68
2021/12/10 01:35:33;;;;;;;45.30;20.40;;;;;;;-1.42;86.89;99042.02;104547;1318;107657;-70
2021/12/10 01:38:06;;;;;;;42.80;21.80;;;;;;;-1.42;86.83;99037.25;104396;1315;138213;-70
2021/12/10 01:40:41;;;;;;;43.00;20.20;;;;;;;-1.42;86.95;99034.86;103566;1316;97857;-70
2021/12/10 01:43:22;;;;;;;40.30;18.30;;;;;;;-1.44;87.03;99031.45;104498;1316;112540;-68
2021/12/10 01:46:02;;;;;;;39.20;19.20;;;;;;;-1.44;86.45;99020.54;103105;1316;138553;-68
2021/12/10 01:48:37;;;;;;;38.10;18.40;;;;;;;-1.41;86.91;99023.44;103203;1314;108155;-69
2021/12/10 01:51:14;;;;;;;42.00;18.50;;;;;;;-1.38;86.83;99022.23;103192;1319;138641;-70
2021/12/10 01:53:49;;;;;;;38.00;18.60;;;;;;;-1.36;86.56;99018.46;103333;1315;97729;-70
2021/12/10 01:56:25;;;;;;;39.70;19.20;;;;;;;-1.34;86.81;99021.02;103041;1320;138367;-70
2021/12/10 01:58:59;;;;;;;39.90;20.00;;;;;;;-1.32;86.83;99029.19;103234;1315;109322;-69
2021/12/10 02:01:35;;;;;;;40.10;19.00;;;;;;;-1.33;86.89;99024.08;103261;1316;108893;-70
2021/12/10 02:04:07;;;;;;;;;;;;;;;-1.33;86.35;99018.11;103200;1315;138670;-70
2021/12/10 02:06:41;;;;;;;45.10;18.90;;;;;;;-1.31;86.43;99018.27;103213;1315;97873;-70
2021/12/10 02:09:14;;;;;;;40.20;19.50;;;;;;;-1.30;86.63;99012.64;103362;1319;138593;-70
2021/12/10 02:11:47;;;;;;;38.80;18.10;;;;;;;-1.27;86.32;99018.92;103557;1315;109192;-70
2021/12/10 02:14:19;;;;;;;41.50;18.40;;;;;;;-1.26;86.29;99006.32;103076;1317;139815;-70
2021/12/10 02:16:55;;;;;;;44.30;19.60;;;;;;;-1.24;86.91;98989.09;103236;1314;98348;-70
2021/12/10 02:19:29;;;;;;;44.80;21.00;;;;;;;-1.24;86.71;98984.48;104650;1317;96073;-69
2021/12/10 02:22:03;;;;;;;40.70;19.40;;;;;;;-1.26;86.86;98980.39;103649;1315;141041;-71
2021/12/10 02:24:36;;;;;;;45.40;19.80;;;;;;;-1.28;86.74;98981.42;104594;1316;109232;-68
2021/12/10 02:27:10;;;;;;;41.20;20.30;;;;;;;-1.29;87.00;98982.61;103282;1315;138781;-70
2021/12/10 02:29:42;;;;;;;38.50;18.20;;;;;;;-1.27;86.69;98978.85;103223;1315;98274;-69
2021/12/10 02:32:14;;;;;;;44.20;19.10;;;;;;;-1.25;86.78;98973.23;104280;1317;139046;-69
2021/12/10 02:34:49;;;;;;;38.70;17.80;;;;;;;-1.24;86.90;98976.64;104051;1315;112518;-69
2021/12/10 02:37:22;;;;;;;43.60;19.00;;;;;;;-1.22;86.92;98973.23;104481;1315;107879;-70
2021/12/10 02:39:54;;;;;;;38.60;19.80;;;;;;;-1.20;86.85;98963.32;103094;1315;138028;-69
2021/12/10 02:42:26;;;;;;;40.70;20.30;;;;;;;-1.19;86.75;98958.70;103213;1315;97854;-69
2021/12/10 02:44:58;;;;;;;40.20;18.90;;;;;;;-1.17;86.69;98955.11;103137;1315;138171;-67
2021/12/10 02:47:31;;;;;;;39.10;18.50;;;;;;;-1.16;86.46;98937.02;103270;1316;112041;-68
2021/12/10 02:50:04;;;;;;;39.10;17.50;;;;;;;-1.16;86.59;98926.79;103195;1316;139922;-67
2021/12/10 02:52:37;;;;;;;36.20;17.80;;;;;;;-1.14;86.96;98939.56;103444;1313;107673;-69
2021/12/10 02:55:14;;;;;;;32.60;17.10;;;;;;;-1.10;86.55;98940.73;103279;1316;97963;-68
2021/12/10 02:57:49;;;;;;;35.50;17.10;;;;;;;-1.10;86.65;98941.41;103275;1315;138481;-69
2021/12/10 03:00:28;;;;;;;37.50;17.20;;;;;;;-1.07;86.75;98955.58;104615;1317;112499;-69
2021/12/10 03:03:01;;;;;;;33.50;16.40;;;;;;;-1.04;86.59;98965.45;103512;1317;138843;-69
2021/12/10 03:05:33;;;;;;;35.90;18.50;;;;;;;-1.03;86.50;98968.84;103303;1316;108564;-69
2021/12/10 03:08:06;;;;;;;39.80;18.90;;;;;;;-1.02;86.50;98973.45;103313;1316;138198;-68
2021/12/10 03:10:41;;;;;;;37.70;18.30;;;;;;;-1.02;86.52;98971.58;103245;1316;97753;-71
2021/12/10 03:13:14;;;;;;;36.80;17.70;;;;;;;-1.04;86.69;98963.73;103195;1317;112223;-68
2021/12/10 03:15:46;;;;;;;35.40;17.70;;;;;;;-1.06;86.92;98957.62;103169;1316;139195;-70
2021/12/10 03:18:20;;;;;;;35.40;17.50;;;;;;;-1.08;86.89;98951.30;103268;1316;108871;-70
2021/12/10 03:20:52;;;;;;;34.30;18.00;;;;;;;-1.07;87.03;98943.45;103175;1315;138991;-71
2021/12/10 03:23:24;;;;;;;33.80;16.90;;;;;;;-1.05;86.92;98944.48;103270;1315;97831;-70
2021/12/10 03:25:56;;;;;;;30.50;16.20;;;;;;;-1.01;87.14;98942.39;103175;1315;138743;-70
2021/12/10 03:28:28;;;;;;;31.50;16.70;;;;;;;-0.99;86.94;98936.92;103257;1316;107941;-69
2021/12/10 03:31:00;;;;;;;31.90;17.30;;;;;;;-0.98;87.25;98936.23;103192;1316;108544;-70
2021/12/10 03:33:33;;;;;;;30.80;16.30;;;;;;;-0.95;86.66;98936.71;103184;1319;138303;-69
2021/12/10 03:36:07;;;;;;;29.50;15.60;;;;;;;-0.95;87.06;98931.59;103358;1315;97956;-70
2021/12/10 03:38:41;;;;;;;31.60;16.00;;;;;;;-0.96;86.83;98923.58;104415;1316;138435;-69
2021/12/10 03:41:14;;;;;;;26.20;14.50;;;;;;;-0.95;86.87;98921.86;103246;1315;109017;-70
2021/12/10 03:43:50;;;;;;;26.20;14.60;;;;;;;-0.92;86.58;98918.42;104465;1320;139514;-70
2021/12/10 03:46:24;;;;;;;25.30;13.00;;;;;;;-0.87;86.78;98918.75;103523;1315;98471;-70
2021/12/10 03:48:56;;;;;;;25.70;13.70;;;;;;;-0.83;86.89;98916.15;103813;1316;96144;-69
2021/12/10 03:51:28;;;;;;;34.30;15.30;;;;;;;-0.80;86.78;98914.08;103354;1322;137681;-69
2021/12/10 03:54:01;;;;;;;31.00;15.90;;;;;;;-0.79;86.69;98910.48;104655;1316;107599;-68
2021/12/10 03:56:36;;;;;;;30.10;15.30;;;;;;;-0.79;86.66;98904.69;103644;1315;138893;-71
2021/12/10 03:59:13;;;;;;;28.00;14.00;;;;;;;-0.78;86.75;98903.98;103123;1315;97825;-68
2021/12/10 04:01:50;;;;;;;30.60;15.20;;;;;;;-0.75;86.81;98896.80;103166;1315;138655;-69
2021/12/10 04:04:22;;;;;;;;;;;;;;;-0.74;86.84;98897.80;103258;1316;112258;-68
2021/12/10 04:06:56;;;;;;;28.20;13.60;;;;;;;-0.73;86.50;98899.34;103309;1317;109268;-69
2021/12/10 04:09:28;;;;;;;27.40;13.60;;;;;;;-0.70;86.92;98900.02;103225;1315;139081;-69
2021/12/10 04:12:01;;;;;;;25.60;13.90;;;;;;;-0.68;86.75;98895.73;103271;1317;97860;-68
2021/12/10 04:14:33;;;;;;;27.50;14.90;;;;;;;-0.66;86.77;98892.46;103200;1315;138010;-69
2021/12/10 04:17:07;;;;;;;27.40;14.40;;;;;;;-0.65;86.91;98889.04;103285;1315;112551;-69
2021/12/10 04:19:40;;;;;;;29.70;14.70;;;;;;;-0.68;86.97;98887.19;104538;1315;109057;-69
2021/12/10 04:22:13;;;;;;;24.80;13.30;;;;;;;-0.70;86.88;98887.73;103176;1319;138873;-68
2021/12/10 04:24:46;;;;;;;25.60;14.10;;;;;;;-0.72;86.92;98880.73;104594;1313;96090;-69
2021/12/10 04:27:19;;;;;;;25.90;12.50;;;;;;;-0.69;87.23;98875.94;103579;1313;138620;-68
2021/12/10 04:29:56;;;;;;;23.20;12.40;;;;;;;-0.65;87.03;98876.41;103233;1315;112826;-68
2021/12/10 04:32:29;;;;;;;21.80;12.10;;;;;;;-0.60;87.28;98881.48;104518;1314;139523;-69
2021/12/10 04:35:01;;;;;;;24.20;12.90;;;;;;;-0.55;87.11;98876.31;103516;1316;109088;-70
2021/12/10 04:37:33;;;;;;;22.20;12.60;;;;;;;-0.50;87.12;98867.56;103603;1322;96376;-69
2021/12/10 04:40:08;;;;;;;27.90;12.70;;;;;;;-0.48;87.24;98872.50;104502;1317;137587;-69
2021/12/10 04:42:41;;;;;;;23.20;12.40;;;;;;;-0.48;86.99;98872.84;104078;1314;112443;-68
2021/12/10 04:45:14;;;;;;;20.60;11.60;;;;;;;-0.48;87.03;98875.41;103088;1313;138739;-69
2021/12/10 04:47:46;;;;;;;19.60;11.90;;;;;;;-0.47;87.04;98877.27;104559;1314;109223;-69
2021/12/10 04:50:21;;;;;;;19.90;10.80;;;;;;;-0.46;87.10;98871.28;103535;1316;138846;-69
2021/12/10 04:52:53;;;;;;;21.30;11.70;;;;;;;-0.43;87.16;98877.56;103256;1314;97909;-69
2021/12/10 04:55:26;;;;;;;21.20;11.00;;;;;;;-0.40;87.08;98872.40;103191;1320;112442;-69
2021/12/10 04:57:59;;;;;;;21.00;11.10;;;;;;;-0.36;87.24;98864.34;103090;1319;138614;-68
2021/12/10 05:00:36;;;;;;;22.30;11.20;;;;;;;-0.33;87.39;98864.49;103248;1316;108900;-69
2021/12/10 05:03:08;;;;;;;22.60;11.50;;;;;;;-0.34;87.06;98860.57;103104;1313;138359;-69
2021/12/10 05:05:43;;;;;;;20.80;11.30;;;;;;;-0.32;87.14;98858.00;103188;1315;97973;-71
2021/12/10 05:08:15;;;;;;;22.70;11.80;;;;;;;-0.30;87.28;98859.85;103563;1314;140233;-70
2021/12/10 05:10:49;;;;;;;21.30;11.40;;;;;;;-0.31;87.57;98854.23;103202;1315;109055;-70
2021/12/10 05:13:21;;;;;;;20.70;11.00;;;;;;;-0.30;87.45;98856.60;103162;1316;106936;-70
2021/12/10 05:15:57;;;;;;;19.20;10.30;;;;;;;-0.27;87.52;98855.20;103078;1317;139158;-69
2021/12/10 05:18:33;;;;;;;17.10;10.60;;;;;;;-0.26;87.53;98856.38;103205;1317;97980;-70
2021/12/10 05:21:06;;;;;;;19.30;10.40;;;;;;;-0.23;87.35;98853.60;103133;1313;138433;-69
2021/12/10 05:23:39;;;;;;;22.00;10.90;;;;;;;-0.18;87.35;98852.19;103278;1315;109015;-69
2021/12/10 05:26:11;;;;;;;21.20;11.50;;;;;;;-0.16;87.42;98852.52;103074;1313;138224;-69
2021/12/10 05:28:43;;;;;;;21.30;10.60;;;;;;;-0.15;87.61;98847.90;103198;1314;97956;-69
2021/12/10 05:31:15;;;;;;;22.40;11.40;;;;;;;-0.17;87.52;98841.09;103227;1314;97880;-69
2021/12/10 05:33:48;;;;;;;20.30;11.20;;;;;;;-0.18;87.49;98838.86;103155;1316;138655;-68
2021/12/10 05:36:20;;;;;;;17.30;10.10;;;;;;;-0.17;87.70;98832.55;103111;1316;109095;-69
2021/12/10 05:38:53;;;;;;;19.30;10.50;;;;;;;-0.14;87.66;98831.31;103119;1313;138576;-69
2021/12/10 05:41:25;;;;;;;20.30;10.50;;;;;;;-0.11;87.53;98832.80;103217;1316;97858;-69
2021/12/10 05:43:58;;;;;;;16.90;10.20;;;;;;;-0.09;88.08;98837.74;103161;1314;138763;-68
2021/12/10 05:46:31;;;;;;;17.90;10.10;;;;;;;-0.10;87.74;98841.16;103147;1316;112584;-69
2021/12/10 05:49:03;;;;;;;18.20;9.30;;;;;;;-0.08;87.61;98847.63;103394;1315;109449;-69
2021/12/10 05:51:35;;;;;;;16.70;10.50;;;;;;;-0.04;87.66;98848.09;103155;1314;138476;-70
2021/12/10 05:54:08;;;;;;;22.10;10.70;;;;;;;-0.01;87.63;98852.16;103237;1313;97944;-70
2021/12/10 05:56:40;;;;;;;21.30;11.60;;;;;;;-0.00;87.71;98844.30;103180;1317;138061;-69
2021/12/10 05:59:12;;;;;;;21.10;11.20;;;;;;;0.00;87.67;98846.86;103283;1314;112809;-71
2021/12/10 06:01:45;;;;;;;19.70;10.80;;;;;;;0.00;87.53;98859.34;103143;1315;109175;-69
2021/12/10 06:04:22;;;;;;;18.80;10.50;;;;;;;-0.01;87.62;98859.84;103092;1316;138242;-69
2021/12/10 06:06:55;;;;;;;20.40;10.90;;;;;;;0.01;87.92;98859.50;103147;1316;97975;-70
2021/12/10 06:09:27;;;;;;;22.90;11.40;;;;;;;0.02;87.52;98860.70;103101;1316;138334;-70
2021/12/10 06:11:59;;;;;;;26.60;12.20;;;;;;;0.03;87.50;98857.42;103231;1315;112598;-70
2021/12/10 06:14:32;;;;;;;22.10;11.10;;;;;;;0.06;87.70;98850.73;103076;1317;138630;-70
2021/12/10 06:17:04;;;;;;;19.10;11.10;;;;;;;0.09;87.60;98867.77;103116;1313;106704;-69
2021/12/10 06:19:36;;;;;;;19.70;10.70;;;;;;;0.11;87.71;98869.96;103641;1313;98595;-69
2021/12/10 06:22:09;;;;;;;18.60;10.20;;;;;;;0.11;87.45;98871.50;103267;1317;137636;-70
2021/12/10 06:24:40;;;;;;;20.70;10.50;;;;;;;0.11;87.63;98871.85;103719;1315;112672;-71
2021/12/10 06:27:13;;;;;;;18.50;10.10;;;;;;;0.09;87.41;98864.69;103879;1316;142871;-69
2021/12/10 06:29:45;;;;;;;15.20;9.40;;;;;;;0.08;87.75;98861.46;103443;1316;106210;-69
2021/12/10 06:32:19;;;;;;;17.20;9.60;;;;;;;0.08;87.72;98866.77;102960;1316;139631;-69
2021/12/10 06:34:51;;;;;;;17.10;8.90;;;;;;;0.07;87.68;98864.39;103245;1316;97980;-71
2021/12/10 06:37:24;;;;;;;16.40;9.50;;;;;;;0.07;88.06;98863.18;103059;1314;184976;-69
2021/12/10 06:39:56;;;;;;;17.20;9.50;;;;;;;0.06;88.16;98871.73;103009;1315;139824;-70
2021/12/10 06:42:29;;;;;;;16.00;9.90;;;;;;;0.06;87.69;98853.11;103180;1314;109068;-70
2021/12/10 06:45:12;;;;;;;21.40;10.10;;;;;;;0.06;87.83;98856.36;103145;1314;138358;-70
2021/12/10 06:47:47;;;;;;;21.20;11.00;;;;;;;0.07;87.92;98863.35;104082;1313;97831;-69
2021/12/10 06:50:23;;;;;;;18.00;9.80;;;;;;;0.09;87.84;98863.15;103059;1320;138492;-69
2021/12/10 06:52:57;;;;;;;18.80;10.30;;;;;;;0.12;88.01;98870.45;103194;1316;109528;-71
2021/12/10 06:55:30;;;;;;;20.70;11.80;;;;;;;0.15;87.93;98865.11;104464;1314;108852;-71
2021/12/10 06:58:02;;;;;;;21.00;11.30;;;;;;;0.17;87.95;98862.20;102973;1315;137935;-71
2021/12/10 07:00:41;;;;;;;19.90;11.10;;;;;;;0.18;87.78;98863.20;103170;1314;97893;-70
2021/12/10 07:03:17;;;;;;;20.90;11.10;;;;;;;0.18;88.06;98867.83;104481;1314;138433;-69
2021/12/10 07:05:50;;;;;;;20.60;11.30;;;;;;;0.17;87.73;98859.11;103761;1314;108894;-69
2021/12/10 07:08:25;;;;;;;23.60;11.10;;;;;;;0.19;87.89;98867.48;103129;1316;138835;-70
2021/12/10 07:10:59;;;;;;;18.40;10.70;;;;;;;0.21;87.92;98860.45;103205;1318;97933;-70
2021/12/10 07:13:32;;;;;;;23.20;11.90;;;;;;;0.23;87.81;98860.93;103706;1315;97931;-69
2021/12/10 07:16:06;;;;;;;20.50;11.20;;;;;;;0.26;87.87;98853.38;103067;1317;138569;-69
2021/12/10 07:18:39;;;;;;;20.10;11.90;;;;;;;0.28;87.51;98845.13;103293;1314;108795;-69
2021/12/10 07:21:13;;;;;;;23.80;12.50;;;;;;;0.32;87.79;98855.84;102976;1316;138671;-69
2021/12/10 07:23:46;;;;;;;26.30;13.40;;;;;;;0.33;87.74;98868.83;103174;1314;97819;-69
2021/12/10 07:26:18;;;;;;;23.30;13.80;;;;;;;0.32;87.67;98869.86;103352;1316;138360;-68
2021/12/10 07:28:51;;;;;;;24.80;14.00;;;;;;;0.30;87.45;98860.14;104571;1315;112471;-70
2021/12/10 07:31:23;;;;;;;26.80;15.20;;;;;;;0.27;87.73;98862.23;103373;1314;108896;-69
2021/12/10 07:33:56;;;;;;;30.30;15.40;;;;;;;0.26;87.72;98870.29;103094;1313;139778;-70
2021/12/10 07:36:28;;;;;;;26.20;15.90;;;;;;;0.24;87.47;98865.02;103302;1313;97813;-69
2021/12/10 07:39:03;;;;;;;29.80;17.10;;;;;;;0.24;87.80;98863.14;103684;1313;138631;-70
2021/12/10 07:41:35;;;;;;;29.00;16.70;;;;;;;0.26;87.73;98859.52;104501;1315;112596;-70
2021/12/10 07:44:08;;;;;;;33.10;19.00;;;;;;;0.29;87.66;98869.21;104478;1314;140557;-70
2021/12/10 07:46:40;;;;;;;23.80;15.10;;;;;;;0.32;87.73;98873.11;103473;1313;109563;-70
2021/12/10 07:49:16;;;;;;;29.30;16.00;;;;;;;0.36;87.64;98873.58;104353;1313;95977;-70
2021/12/10 07:51:50;;;;;;;32.40;17.40;;;;;;;0.40;87.59;98874.39;103504;1312;138454;-69
2021/12/10 07:54:22;;;;;;;34.60;18.70;;;;;;;0.43;87.41;98876.91;103282;1318;113224;-68
2021/12/10 07:56:56;;;;;;;29.20;17.90;;;;;;;0.45;87.44;98874.14;103190;1315;138006;-70
2021/12/10 07:59:28;;;;;;;27.60;16.90;;;;;;;0.45;87.38;98876.20;104508;1311;109349;-71
2021/12/10 08:02:00;;;;;;;30.50;17.20;;;;;;;0.44;87.41;98879.11;104301;1316;142003;-70
2021/12/10 08:04:32;;;;;;;25.90;15.90;;;;;;;0.45;87.43;98870.73;104526;1314;96129;-69
2021/12/10 08:07:05;;;;;;;25.50;16.30;;;;;;;0.47;87.27;98874.64;104513;1314;112199;-70
2021/12/10 08:09:38;;;;;;;24.40;16.30;;;;;;;0.49;87.25;98875.45;103367;1316;138729;-70
2021/12/10 08:12:11;;;;;;;29.10;17.00;;;;;;;0.50;87.33;98873.55;103677;1316;109082;-71
2021/12/10 08:14:45;;;;;;;30.60;18.20;;;;;;;0.52;87.24;98869.75;103699;1314;138309;-71
2021/12/10 08:17:19;;;;;;;32.30;19.40;;;;;;;0.54;87.28;98869.92;104102;1316;97778;-71
2021/12/10 08:19:52;;;;;;;32.60;19.30;;;;;;;0.53;87.18;98869.41;104613;1316;111554;-71
2021/12/10 08:22:24;;;;;;;32.00;19.20;;;;;;;0.53;87.06;98868.73;104248;1314;140483;-71
2021/12/10 08:24:56;;;;;;;30.00;18.50;;;;;;;0.54;87.34;98872.84;104571;1312;109619;-71
2021/12/10 08:27:28;;;;;;;31.30;20.00;;;;;;;0.55;87.32;98864.27;103303;1313;138673;-70
2021/12/10 08:30:03;;;;;;;34.80;20.60;;;;;;;0.60;87.35;98864.55;103511;1315;97903;-70
2021/12/10 08:32:35;;;;;;;36.10;22.20;;;;;;;0.62;87.15;98865.70;103227;1315;138046;-70
2021/12/10 08:35:12;;;;;;;41.70;23.20;;;;;;;0.63;87.17;98864.50;103744;1314;109038;-71
2021/12/10 08:37:44;;;;;;;41.30;24.90;;;;;;;0.62;87.13;98867.42;104544;1313;109052;-70
2021/12/10 08:40:21;;;;;;;39.70;23.00;;;;;;;0.62;87.33;98877.52;104071;1316;138927;-69
2021/12/10 08:42:52;;;;;;;;;;;;;;;0.62;87.23;98877.17;103834;1313;96653;-69
2021/12/10 08:45:27;;;;;;;42.50;24.50;;;;;;;0.61;87.28;98870.00;103732;1314;124568;-71
2021/12/10 08:47:59;;;;;;;41.80;23.90;;;;;;;0.60;87.38;98879.06;104498;1315;108911;-71
2021/12/10 08:50:32;;;;;;;48.20;25.40;;;;;;;0.63;87.41;98883.30;103196;1318;140040;-71
2021/12/10 08:53:06;;;;;;;51.70;28.60;;;;;;;0.64;87.48;98885.86;104525;1314;96758;-73
2021/12/10 08:55:40;;;;;;;52.80;28.10;;;;;;;0.61;87.30;98883.67;103583;1312;97833;-72
2021/12/10 08:58:13;;;;;;;53.90;27.40;;;;;;;0.59;87.54;98889.52;103023;1319;138275;-72
2021/12/10 09:00:49;;;;;;;47.00;26.30;;;;;;;0.59;87.59;98882.00;103249;1317;109244;-72
2021/12/10 09:03:41;;;;;;;49.50;27.70;;;;;;;0.59;87.67;98880.11;103682;1315;138539;-70
2021/12/10 09:06:15;;;;;;;50.50;29.00;;;;;;;0.58;87.66;98882.18;104535;1313;97154;-72
2021/12/10 09:08:47;;;;;;;54.70;31.50;;;;;;;0.56;87.87;98888.54;103227;1317;137735;-72
2021/12/10 09:11:19;;;;;;;55.30;29.40;;;;;;;0.54;87.79;98883.94;103129;1316;112055;-72
2021/12/10 09:14:12;;;;;;;54.00;28.80;;;;;;;0.52;87.94;98892.16;103068;1316;138638;-71
2021/12/10 09:16:44;;;;;;;51.60;28.80;;;;;;;0.52;88.07;98897.13;103159;1313;108114;-71
2021/12/10 09:19:17;;;;;;;50.50;28.30;;;;;;;0.51;88.00;98890.13;103113;1314;97948;-71
2021/12/10 09:21:51;;;;;;;51.30;29.10;;;;;;;0.52;87.88;98877.29;104474;1314;138832;-71
2021/12/10 09:24:24;;;;;;;55.10;30.10;;;;;;;0.56;88.13;98885.65;104536;1315;112517;-69
2021/12/10 09:27:01;;;;;;;60.20;31.50;;;;;;;0.60;88.02;98883.52;104314;1314;137785;-70
2021/12/10 09:29:36;;;;;;;57.80;33.00;;;;;;;0.63;88.02;98888.10;103445;1316;109081;-70
2021/12/10 09:32:13;;;;;;;54.40;30.50;;;;;;;0.66;87.90;98879.51;103415;1316;138419;-71
2021/12/10 09:34:46;;;;;;;53.50;30.70;;;;;;;0.66;87.97;98875.21;104552;1315;95983;-70
2021/12/10 09:37:21;;;;;;;50.70;29.10;;;;;;;0.67;88.09;98871.45;103908;1315;112665;-72
2021/12/10 09:39:54;;;;;;;54.50;29.70;;;;;;;0.68;87.89;98870.91;103118;1316;138620;-70
2021/12/10 09:42:26;;;;;;;54.70;30.20;;;;;;;0.71;87.79;98877.20;104523;1315;108971;-70
2021/12/10 09:44:59;;;;;;;58.10;33.80;;;;;;;0.75;87.79;98883.99;103505;1317;138129;-71
2021/12/10 09:47:31;;;;;;;63.60;33.90;;;;;;;0.77;87.80;98889.27;103260;1316;98081;-70
2021/12/10 09:50:07;;;;;;;63.80;34.00;;;;;;;0.77;87.72;98895.43;104454;1314;138360;-71
2021/12/10 09:52:39;;;;;;;61.40;32.10;;;;;;;0.77;87.71;98894.07;104155;1316;109355;-72
2021/12/10 09:55:15;;;;;;;60.80;34.10;;;;;;;0.78;87.78;98893.54;103834;1315;108845;-73
2021/12/10 09:57:50;;;;;;;58.30;31.20;;;;;;;0.79;87.69;98888.55;103405;1316;139494;-71
2021/12/10 10:00:28;;;;;;;59.50;32.80;;;;;;;0.81;87.84;98888.69;104459;1313;96813;-71
2021/12/10 10:03:01;;;;;;;66.40;35.80;;;;;;;0.82;87.59;98888.16;103878;1314;138404;-72
2021/12/10 10:05:34;;;;;;;69.40;35.60;;;;;;;0.81;87.70;98894.86;103474;1313;107251;-71
2021/12/10 10:08:10;;;;;;;62.60;33.70;;;;;;;0.77;87.80;98897.65;104308;1319;138326;-71
2021/12/10 10:10:49;;;;;;;60.20;33.00;;;;;;;0.73;87.68;98896.86;103445;1322;96348;-71
2021/12/10 10:13:26;;;;;;;60.40;33.10;;;;;;;0.72;87.86;98884.89;103493;1315;97933;-72
2021/12/10 10:15:59;;;;;;;55.40;31.70;;;;;;;0.72;87.88;98884.20;103136;1315;139946;-71
2021/12/10 10:18:34;;;;;;;56.30;29.20;;;;;;;0.73;88.03;98874.63;103601;1313;108967;-71
2021/12/10 10:21:11;;;;;;;57.60;30.40;;;;;;;0.75;87.87;98871.85;103554;1314;138353;-71
2021/12/10 10:23:45;;;;;;;59.30;31.40;;;;;;;0.77;87.82;98863.80;104297;1313;95951;-71
2021/12/10 10:26:20;;;;;;;59.20;31.40;;;;;;;0.78;87.91;98864.63;104332;1314;137847;-71
2021/12/10 10:28:53;;;;;;;61.80;31.80;;;;;;;0.80;87.75;98865.95;104017;1310;111502;-71
2021/12/10 10:31:27;;;;;;;56.30;28.70;;;;;;;0.80;87.69;98868.86;102977;1315;111767;-70
2021/12/10 10:34:01;;;;;;;57.00;28.50;;;;;;;0.83;87.70;98864.54;103526;1314;139548;-70
2021/12/10 10:36:38;;;;;;;50.40;26.50;;;;;;;0.86;87.52;98853.87;103648;1313;97725;-71
2021/12/10 10:39:15;;;;;;;51.20;27.50;;;;;;;0.88;87.35;98857.08;103172;1312;138511;-71
2021/12/10 10:41:49;;;;;;;;;;;;;;;0.92;87.48;98857.39;104584;1313;112454;-71
2021/12/10 10:44:23;;;;;;;55.30;28.60;;;;;;;0.95;87.50;98858.04;104256;1314;124474;-71
2021/12/10 10:46:59;;;;;;;56.40;29.90;;;;;;;0.96;87.32;98861.43;104466;1313;108527;-71
2021/12/10 10:49:38;;;;;;;50.00;28.10;;;;;;;0.98;87.25;98868.94;103760;1313;97846;-70
2021/12/10 10:52:28;;;;;;;50.90;26.30;;;;;;;1.00;87.22;98879.34;104499;1314;140225;-71
2021/12/10 10:55:16;;;;;;;50.20;26.00;;;;;;;1.01;86.98;98874.88;103373;1315;112528;-71
2021/12/10 10:57:55;;;;;;;47.90;25.00;;;;;;;1.04;87.27;98879.09;103034;1315;138479;-71
2021/12/10 11:00:34;;;;;;;48.00;26.50;;;;;;;1.06;86.86;98864.52;104032;1314;108532;-71
2021/12/10 11:03:17;;;;;;;52.10;28.30;;;;;;;1.08;86.94;98865.02;103165;1316;138866;-73
2021/12/10 11:05:53;;;;;;;51.70;27.50;;;;;;;1.08;86.93;98862.09;103893;1313;96152;-71
2021/12/10 11:08:30;;;;;;;54.10;28.70;;;;;;;1.05;86.80;98858.04;103626;1317;138177;-71
2021/12/10 11:11:15;;;;;;;48.90;26.10;;;;;;;1.02;86.94;98866.63;104544;1311;109553;-71
2021/12/10 11:13:50;;;;;;;49.10;25.60;;;;;;;1.00;87.00;98886.17;104551;1315;108458;-72
2021/12/10 11:16:27;;;;;;;48.90;25.90;;;;;;;0.98;87.15;98875.60;104415;1315;138166;-70
2021/12/10 11:19:04;;;;;;;46.10;25.70;;;;;;;0.98;87.23;98869.97;103611;1315;97883;-70
2021/12/10 11:21:43;;;;;;;50.30;26.60;;;;;;;0.97;87.11;98871.00;103376;1314;138459;-72
2021/12/10 11:24:21;;;;;;;53.00;27.70;;;;;;;0.96;86.92;98863.83;104263;1314;108661;-73
2021/12/10 11:26:58;;;;;;;55.60;28.90;;;;;;;0.95;87.21;98856.50;103778;1313;138767;-72
2021/12/10 11:29:43;;;;;;;52.90;28.60;;;;;;;0.94;87.08;98851.37;103889;1314;96024;-73
2021/12/10 11:32:19;;;;;;;52.40;27.40;;;;;;;0.93;87.09;98863.20;103787;1315;138624;-73
2021/12/10 11:35:03;;;;;;;53.40;27.90;;;;;;;0.93;87.14;98862.87;103402;1313;111325;-74
2021/12/10 11:37:54;;;;;;;51.20;27.70;;;;;;;0.93;87.26;98866.96;102595;1315;108953;-74
2021/12/10 11:40:42;;;;;;;55.80;28.30;;;;;;;0.94;87.14;98864.55;103832;1314;138686;-73
2021/12/10 11:43:34;;;;;;;54.90;28.80;;;;;;;0.94;87.28;98853.95;103943;1313;96065;-75
2021/12/10 11:46:28;;;;;;;57.60;29.70;;;;;;;0.92;87.21;98854.32;103843;1314;137777;-75
2021/12/10 11:49:11;;;;;;;58.00;28.80;;;;;;;0.92;87.29;98862.53;103161;1315;111386;-75
2021/12/10 11:51:46;;;;;;;54.20;28.40;;;;;;;0.91;87.35;98863.75;102500;1315;138804;-71